McLoud, Oklahoma
Current Conditions -  °F | °C
As of 6:58 AM on Monday 20 Oct 2014 (Local Time) from KTIK Reporting Station
Broken Clouds Broken Clouds  
Wind Chill: 56°   Ceiling: 6000
Heat Index: 56°   Visibility: 10mi
Dew Point: 52°   Wind: 8mph
Humidity: 87%   Direction: 180°S
Pressure: 30.05"   Gusts: NA
Location:  35.44°N, 97.09°W
Report Text: KTIK 201158Z AUTO 18007KT 10SM BKN060 13/11 A3005 RMK AO2 SLP178 T01340113 10154 20132 53005 $
Loading
Personal Weather Stations






























Interactive Weather Map
Tropical Storm Tracking
New forecast layout! Learn more

10-Day Weather Forecast

Advertisements
Track Severe Weather on mobile